首页
METAR-TAF:

METAR-TAF

机场 :

卡尔维, 法国

纬度: 42-32N, 经度: 008-48E, 海拔: 64米

当前天气观测

该预报发布于18分钟前的13:30 UTC
风速12节,风向南转西南
温度 20°C
湿度 46%
气压 1027 hPa
能见度10公里或以上
1500米以下无云,无积雨云

METAR: LFKC 231330Z AUTO 20012KT CAVOK 20/08 Q1027 TEMPO 21015G25KT

时间: 14:48 (13:48 UTC)

预报

该预报发布于5小时和48分钟前的08:00 UTC
预报有效从23日的 09点(UTC)到 24日的 09点(UTC)
风速10节,风向西南
能见度10公里或以上
1500米以下无云,无积雨云
几率 40% :
短暂存在
从 23日的 11点(UTC)到 23日的 21点(UTC)
风速15节,风向南转西南,有时为25节阵风

TAF: LFKC 230800Z 2309/2409 22010KT CAVOK TX19/2313Z TN09/2406Z PROB40 TEMPO 2311/2321 21015G25KT

超过4000个机场的气象观测和天气预报(METAR&TAF报告)。

可查询的气象台以黄色和红色小点在地图上表示。

将鼠标移到小点上方,可查看气象台名称。

然后点击查看天气观测和预报。

如需切换地图:点击带黑十字的绿色按钮放大地图;点击带横线的绿色按钮缩小地图;或者点击绿色箭头查看邻近地区的地图。


METAR-TAF: